Time;durP1;ratioP1;P1;durP2;ratioP2;P2;SDS_P1;SDS_P2;PMS_P1;PMS_P2;Temp;Humidity;BMP_temperature;BMP_pressure;BME280_temperature;BME280_humidity;BME280_pressure;Samples;Min_cycle;Max_cycle;Signal;HPM_P1;HPM_P2
2023/09/19 00:01:08;;;;;;;4.32;3.10;;;;;;;17.89;73.40;95203.72;4802286;29;20599;-68
2023/09/19 00:03:37;;;;;;;8.35;3.00;;;;;;;17.96;73.31;95202.47;4802994;29;20187;-68
2023/09/19 00:06:04;;;;;;;3.95;3.33;;;;;;;17.93;73.46;95205.63;4802789;29;20267;-68
2023/09/19 00:08:30;;;;;;;5.97;3.10;;;;;;;17.89;73.90;95209.03;4802976;29;20266;-68
2023/09/19 00:10:58;;;;;;;6.47;3.45;;;;;;;17.89;74.00;95212.50;4801962;29;20432;-68
2023/09/19 00:13:24;;;;;;;6.18;3.00;;;;;;;17.83;74.15;95218.00;4801580;29;20491;-68
2023/09/19 00:15:50;;;;;;;6.80;2.97;;;;;;;17.56;74.55;95175.28;4802360;29;20483;-68
2023/09/19 00:18:17;;;;;;;4.40;3.27;;;;;;;17.89;74.23;95206.38;4802028;29;20431;-68
2023/09/19 00:20:43;;;;;;;6.00;3.35;;;;;;;17.73;74.94;95206.16;4801736;29;20923;-67
2023/09/19 00:23:08;;;;;;;4.30;3.08;;;;;;;17.71;74.96;95202.16;4797165;29;20188;-68
2023/09/19 00:25:37;;;;;;;6.22;3.40;;;;;;;17.73;75.10;95200.03;4784002;30;20509;-68
2023/09/19 00:28:06;;;;;;;4.85;3.15;;;;;;;17.47;75.75;95179.44;4782091;30;20461;-67
2023/09/19 00:30:32;;;;;;;4.32;2.92;;;;;;;17.61;75.74;95204.66;4768157;30;20792;-68
2023/09/19 00:32:58;;;;;;;5.40;3.13;;;;;;;17.66;75.28;95199.41;4783574;29;20579;-68
2023/09/19 00:35:24;;;;;;;9.00;3.65;;;;;;;17.62;75.62;95185.00;4783718;29;20532;-68
2023/09/19 00:37:50;;;;;;;4.18;2.83;;;;;;;17.62;75.89;95188.47;4784518;29;20193;-68
2023/09/19 00:40:16;;;;;;;4.50;3.15;;;;;;;17.61;75.90;95188.66;4784577;29;20180;-68
2023/09/19 00:42:42;;;;;;;4.10;3.10;;;;;;;17.61;75.85;95192.13;4784450;29;20649;-68
2023/09/19 00:45:12;;;;;;;6.90;3.38;;;;;;;17.46;75.86;95178.63;4784424;29;20173;-68
2023/09/19 00:47:49;;;;;;;3.97;3.17;;;;;;;17.41;76.62;95183.06;4783760;30;20433;-67
2023/09/19 00:50:17;;;;;;;4.43;3.13;;;;;;;17.31;76.95;95194.34;4783023;30;20426;-67
2023/09/19 00:52:43;;;;;;;6.65;3.67;;;;;;;17.13;77.25;95160.03;4784699;29;20433;-68
2023/09/19 00:55:10;;;;;;;5.18;2.80;;;;;;;17.35;77.02;95188.31;4768425;30;20213;-68
2023/09/19 00:57:40;;;;;;;6.47;3.80;;;;;;;17.33;77.27;95195.72;4783620;29;20433;-68
2023/09/19 01:00:10;;;;;;;5.50;3.42;;;;;;;17.41;77.14;95191.84;4783909;29;20426;-68
2023/09/19 01:02:35;;;;;;;5.07;3.25;;;;;;;17.45;77.12;95198.31;4801069;29;20424;-68
2023/09/19 01:05:03;;;;;;;6.95;3.17;;;;;;;17.23;77.75;95182.28;4802352;29;20210;-68
2023/09/19 01:07:31;;;;;;;3.67;2.90;;;;;;;17.32;77.57;95190.66;4802340;29;20585;-68
2023/09/19 01:10:02;;;;;;;4.45;2.83;;;;;;;17.29;77.91;95183.19;4802334;29;20577;-68
2023/09/19 01:12:40;;;;;;;6.57;3.20;;;;;;;17.21;78.30;95192.34;4801373;29;20547;-68
2023/09/19 01:15:17;;;;;;;6.37;3.90;;;;;;;17.19;78.43;95196.31;4801371;29;21152;-68
2023/09/19 01:17:50;;;;;;;5.78;3.70;;;;;;;17.08;78.98;95190.03;4801392;29;20955;-67
2023/09/19 01:20:36;;;;;;;4.53;3.40;;;;;;;17.14;78.68;95190.91;4802221;29;20263;-68
2023/09/19 01:23:14;;;;;;;8.30;3.20;;;;;;;17.15;78.65;95200.50;4776616;29;20195;-68
2023/09/19 01:26:01;;;;;;;6.68;3.65;;;;;;;17.14;78.77;95205.03;4802129;29;20175;-68
2023/09/19 01:28:57;;;;;;;6.90;3.97;;;;;;;17.16;78.67;95202.13;4801197;29;20446;-68
2023/09/19 01:31:28;;;;;;;6.03;3.78;;;;;;;17.14;78.86;95193.56;4800917;29;20506;-67
2023/09/19 01:33:59;;;;;;;5.88;3.47;;;;;;;17.04;78.69;95196.09;4805347;29;20267;-68
2023/09/19 01:36:26;;;;;;;8.27;3.33;;;;;;;17.08;78.70;95189.22;4804786;29;20521;-67
2023/09/19 01:38:53;;;;;;;5.75;3.22;;;;;;;17.01;79.20;95199.22;4805441;29;20238;-68
2023/09/19 01:41:30;;;;;;;7.50;3.35;;;;;;;16.84;79.56;95173.44;4793619;29;20989;-68
2023/09/19 01:43:56;;;;;;;5.88;3.55;;;;;;;17.01;79.37;95197.38;4785764;29;20184;-67
2023/09/19 01:46:26;;;;;;;8.52;4.05;;;;;;;17.09;78.93;95191.66;4787273;29;20212;-68
2023/09/19 01:49:20;;;;;;;6.40;3.65;;;;;;;17.19;78.85;95188.34;4787291;29;20183;-68
2023/09/19 01:51:51;;;;;;;5.43;3.95;;;;;;;17.16;79.02;95199.47;4786145;29;20187;-68
2023/09/19 01:54:24;;;;;;;7.00;3.75;;;;;;;17.11;79.36;95199.41;4787121;29;20681;-68
2023/09/19 01:57:11;;;;;;;10.82;3.58;;;;;;;17.10;79.33;95197.78;4787308;29;20746;-68
2023/09/19 01:59:48;;;;;;;8.48;3.20;;;;;;;17.11;79.25;95196.72;4785794;29;20188;-68
2023/09/19 02:02:17;;;;;;;6.57;3.60;;;;;;;17.14;79.23;95193.56;4785108;29;20257;-68
2023/09/19 02:04:43;;;;;;;4.80;3.10;;;;;;;16.96;79.08;95171.50;4804732;29;20180;-68
2023/09/19 02:07:08;;;;;;;6.57;3.47;;;;;;;16.98;79.64;95179.22;4804892;29;20188;-68
2023/09/19 02:09:35;;;;;;;8.38;4.70;;;;;;;17.05;79.86;95195.03;4804701;29;20178;-68
2023/09/19 02:12:01;;;;;;;6.88;4.07;;;;;;;16.98;80.13;95197.84;4804829;29;20292;-68
2023/09/19 02:14:27;;;;;;;10.27;5.45;;;;;;;16.95;79.96;95199.13;4788566;29;20637;-68
2023/09/19 02:16:53;;;;;;;10.40;5.95;;;;;;;16.90;79.75;95199.06;4804927;29;20270;-68
2023/09/19 02:19:20;;;;;;;13.32;6.38;;;;;;;16.72;80.01;95195.81;4804589;29;20434;-68
2023/09/19 02:21:47;;;;;;;12.60;5.07;;;;;;;16.56;80.90;95192.88;4804886;29;20180;-68
2023/09/19 02:24:15;;;;;;;10.88;5.07;;;;;;;16.38;81.43;95179.78;4787564;29;20185;-68
2023/09/19 02:26:40;;;;;;;9.57;4.70;;;;;;;16.41;81.55;95186.50;4786733;29;20315;-68
2023/09/19 02:29:06;;;;;;;7.47;4.90;;;;;;;16.37;81.64;95182.69;4786602;29;20193;-68
2023/09/19 02:31:31;;;;;;;9.43;5.20;;;;;;;16.07;82.32;95157.19;4785489;30;20434;-68
2023/09/19 02:33:56;;;;;;;7.18;4.63;;;;;;;16.25;82.08;95190.72;4786480;29;20288;-68
2023/09/19 02:36:23;;;;;;;8.38;5.03;;;;;;;16.23;82.27;95176.88;4786511;29;20676;-68
2023/09/19 02:38:49;;;;;;;7.45;4.85;;;;;;;16.20;82.20;95161.41;4786575;29;20185;-68
2023/09/19 02:41:14;;;;;;;6.93;5.03;;;;;;;16.15;82.22;95156.00;4786331;29;20273;-68
2023/09/19 02:43:40;;;;;;;7.30;4.05;;;;;;;16.18;82.31;95169.59;4785830;29;20222;-68
2023/09/19 02:46:05;;;;;;;9.23;5.28;;;;;;;16.13;82.66;95169.50;4786558;30;20187;-68
2023/09/19 02:48:32;;;;;;;7.35;4.15;;;;;;;16.05;82.81;95156.63;4786215;29;20667;-68
2023/09/19 02:50:57;;;;;;;8.68;4.53;;;;;;;15.79;83.71;95155.31;4786242;30;20187;-68
2023/09/19 02:53:23;;;;;;;6.68;4.45;;;;;;;15.75;84.24;95156.00;4786280;29;20189;-68
2023/09/19 02:55:50;;;;;;;5.75;4.03;;;;;;;15.74;84.37;95155.19;4792493;29;20212;-68
2023/09/19 02:58:16;;;;;;;9.27;5.00;;;;;;;15.69;84.49;95154.31;4786045;29;20180;-68
2023/09/19 03:00:42;;;;;;;6.97;4.85;;;;;;;15.76;84.20;95162.94;4769914;30;20198;-68
2023/09/19 03:03:08;;;;;;;14.27;4.88;;;;;;;15.79;84.07;95150.00;4785800;29;20181;-68
2023/09/19 03:05:34;;;;;;;12.93;5.13;;;;;;;15.79;84.08;95149.19;4785627;29;20187;-68
2023/09/19 03:08:00;;;;;;;7.03;4.00;;;;;;;15.71;84.19;95149.56;4785475;29;20180;-68
2023/09/19 03:10:27;;;;;;;7.53;4.75;;;;;;;15.72;84.14;95148.53;4785713;29;20649;-68
2023/09/19 03:12:54;;;;;;;11.10;4.22;;;;;;;15.71;84.16;95150.38;4776961;29;20327;-68
2023/09/19 03:15:19;;;;;;;10.25;5.45;;;;;;;15.71;84.11;95141.59;4803683;29;20212;-68
2023/09/19 03:17:47;;;;;;;7.75;4.75;;;;;;;15.63;84.30;95139.31;4803751;29;20214;-68
2023/09/19 03:20:13;;;;;;;11.63;5.45;;;;;;;15.46;84.55;95126.75;4786450;29;20870;-68
2023/09/19 03:22:42;;;;;;;9.52;4.85;;;;;;;15.47;84.87;95143.50;4803511;29;20563;-68
2023/09/19 03:25:08;;;;;;;10.40;5.32;;;;;;;15.44;85.31;95146.59;4803556;29;20180;-67
2023/09/19 03:27:36;;;;;;;9.02;4.60;;;;;;;15.46;85.28;95139.22;4803355;29;20279;-68
2023/09/19 03:30:07;;;;;;;10.98;4.97;;;;;;;15.47;85.09;95140.84;4803392;29;20188;-68
2023/09/19 03:32:34;;;;;;;10.68;5.30;;;;;;;15.35;85.49;95138.19;4801877;29;20428;-67
2023/09/19 03:35:00;;;;;;;8.40;5.22;;;;;;;15.42;85.24;95156.63;4803237;29;20203;-68
2023/09/19 03:37:26;;;;;;;10.88;5.63;;;;;;;15.41;85.31;95150.50;4803276;29;20236;-68
2023/09/19 03:39:51;;;;;;;11.40;5.10;;;;;;;15.43;85.22;95160.91;4803237;29;20192;-68
2023/09/19 03:42:17;;;;;;;10.02;5.45;;;;;;;15.45;84.92;95150.88;4803084;29;20184;-68
2023/09/19 03:44:42;;;;;;;9.77;5.47;;;;;;;15.44;85.18;95167.81;4802253;29;20499;-68
2023/09/19 03:47:08;;;;;;;12.35;5.65;;;;;;;15.31;84.90;95147.63;4803063;29;20198;-68
2023/09/19 03:49:33;;;;;;;20.02;5.85;;;;;;;15.38;85.00;95163.47;4803059;29;20187;-67
2023/09/19 03:51:59;;;;;;;9.23;5.20;;;;;;;15.33;85.37;95158.84;4803055;29;20649;-67
2023/09/19 03:54:24;;;;;;;10.35;5.60;;;;;;;15.33;85.62;95165.97;4802970;29;20199;-67
2023/09/19 03:56:50;;;;;;;22.15;6.82;;;;;;;15.31;85.47;95168.88;4803059;29;20629;-68
2023/09/19 03:59:16;;;;;;;14.65;5.68;;;;;;;15.29;85.02;95168.31;4803136;29;20187;-67
2023/09/19 04:01:41;;;;;;;23.60;8.38;;;;;;;15.29;85.19;95165.66;4803256;29;20186;-68
2023/09/19 04:04:09;;;;;;;16.02;6.70;;;;;;;15.22;85.38;95167.59;4802999;29;20188;-68
2023/09/19 04:06:35;;;;;;;11.20;6.80;;;;;;;15.23;85.72;95171.06;4803075;29;20328;-68
2023/09/19 04:09:03;;;;;;;17.75;6.60;;;;;;;15.21;85.79;95176.63;4802820;29;20255;-68
2023/09/19 04:11:29;;;;;;;16.83;7.18;;;;;;;15.21;85.90;95183.78;4803124;29;20424;-68
2023/09/19 04:13:54;;;;;;;15.13;7.20;;;;;;;15.19;85.66;95184.00;4802773;29;20231;-68
2023/09/19 04:16:20;;;;;;;18.83;6.97;;;;;;;15.12;85.62;95174.53;4802685;29;20204;-68
2023/09/19 04:18:45;;;;;;;13.95;6.72;;;;;;;15.17;85.47;95180.75;4802574;29;20316;-68
2023/09/19 04:21:10;;;;;;;16.88;6.90;;;;;;;15.19;85.87;95173.38;4802882;29;20202;-68
2023/09/19 04:23:36;;;;;;;14.35;5.97;;;;;;;15.21;85.93;95171.31;4802344;29;20194;-68
2023/09/19 04:26:03;;;;;;;26.23;6.85;;;;;;;15.26;86.30;95170.59;4802501;29;20187;-68
2023/09/19 04:28:29;;;;;;;17.55;6.95;;;;;;;15.19;86.03;95149.50;4802462;29;20336;-68
2023/09/19 04:30:55;;;;;;;13.13;7.10;;;;;;;15.40;85.97;95170.13;4802629;29;20267;-68
2023/09/19 04:33:21;;;;;;;13.50;6.68;;;;;;;15.51;85.66;95175.66;4802510;29;20675;-68
2023/09/19 04:35:49;;;;;;;18.88;6.88;;;;;;;15.64;85.50;95168.28;4802340;29;20264;-68
2023/09/19 04:38:14;;;;;;;16.17;6.25;;;;;;;15.67;84.26;95157.19;4802086;29;20188;-68
2023/09/19 04:40:40;;;;;;;15.90;6.40;;;;;;;15.87;84.41;95169.25;4801835;29;20672;-68
2023/09/19 04:43:05;;;;;;;13.13;5.95;;;;;;;15.96;84.10;95171.31;4802504;29;20180;-68
2023/09/19 04:45:31;;;;;;;12.15;6.82;;;;;;;16.03;83.87;95169.31;4802448;29;20252;-68
2023/09/19 04:47:56;;;;;;;20.13;7.95;;;;;;;16.08;83.67;95171.28;4802396;29;20184;-68
2023/09/19 04:50:23;;;;;;;14.18;6.35;;;;;;;16.12;83.11;95167.91;4802746;29;20199;-68
2023/09/19 04:52:51;;;;;;;12.85;5.22;;;;;;;16.21;82.96;95165.66;4803058;29;20172;-68
2023/09/19 04:55:19;;;;;;;19.92;7.20;;;;;;;16.42;83.04;95170.31;4802648;29;20208;-68
2023/09/19 04:57:48;;;;;;;20.27;7.47;;;;;;;16.80;81.49;95161.66;4802505;29;20188;-68
2023/09/19 05:00:16;;;;;;;26.48;6.63;;;;;;;17.30;80.07;95156.28;4802525;29;20703;-68
2023/09/19 05:02:42;;;;;;;22.58;6.93;;;;;;;17.90;78.25;95163.47;4802676;29;20179;-68
2023/09/19 05:05:14;;;;;;;21.88;6.63;;;;;;;18.42;75.93;95158.44;4802608;29;20270;-68
2023/09/19 05:07:42;;;;;;;16.00;6.20;;;;;;;19.48;73.86;95171.09;4804354;29;20567;-68
2023/09/19 05:10:08;;;;;;;18.83;8.38;;;;;;;20.74;69.16;95180.66;4806041;29;20183;-69
2023/09/19 05:12:35;;;;;;;13.40;5.40;;;;;;;21.95;63.82;95167.13;4806163;29;20314;-68
2023/09/19 05:15:04;;;;;;;15.90;5.55;;;;;;;22.38;61.06;95180.91;4790054;29;20257;-69
2023/09/19 05:17:31;;;;;;;12.68;5.18;;;;;;;23.42;58.80;95163.53;4805968;29;20184;-69
2023/09/19 05:19:57;;;;;;;18.25;5.43;;;;;;;24.64;55.61;95181.78;4805916;29;20176;-69
2023/09/19 05:22:24;;;;;;;31.17;7.45;;;;;;;25.47;53.01;95185.59;4806013;29;20186;-69
2023/09/19 05:24:51;;;;;;;13.50;5.93;;;;;;;26.30;51.16;95185.41;4805908;29;20271;-70
2023/09/19 05:27:17;;;;;;;12.43;5.70;;;;;;;26.95;49.54;95165.38;4805864;29;20242;-70
2023/09/19 05:29:45;;;;;;;17.35;5.97;;;;;;;27.83;46.62;95179.97;4805800;29;20641;-69
2023/09/19 05:32:11;;;;;;;23.42;6.85;;;;;;;28.56;45.45;95164.91;4805910;29;20259;-69
2023/09/19 05:34:38;;;;;;;17.27;6.80;;;;;;;29.23;43.14;95176.13;4805999;29;20203;-69
2023/09/19 05:37:03;;;;;;;11.57;5.20;;;;;;;29.39;42.72;95173.75;4805831;29;20548;-69
2023/09/19 05:39:29;;;;;;;8.90;5.20;;;;;;;29.23;42.85;95167.97;4805275;29;20199;-69
2023/09/19 05:41:55;;;;;;;9.68;5.65;;;;;;;29.04;43.49;95155.91;4805688;29;20304;-68
2023/09/19 05:44:20;;;;;;;10.05;5.80;;;;;;;28.57;43.81;95152.97;4805665;29;20684;-68
2023/09/19 05:46:48;;;;;;;12.52;5.63;;;;;;;27.98;45.41;95148.97;4805607;29;20180;-68
2023/09/19 05:49:13;;;;;;;12.77;5.00;;;;;;;27.33;46.72;95155.00;4805237;29;20275;-68
2023/09/19 05:51:39;;;;;;;15.20;5.38;;;;;;;26.89;46.94;95153.88;4805645;29;20262;-67
2023/09/19 05:54:04;;;;;;;14.95;5.03;;;;;;;26.47;48.24;95149.69;4805333;29;20171;-67
2023/09/19 05:56:30;;;;;;;12.52;4.82;;;;;;;26.40;48.81;95157.41;4805593;29;20327;-69
2023/09/19 05:58:55;;;;;;;8.93;5.00;;;;;;;26.59;48.88;95151.84;4805204;29;20670;-68
2023/09/19 06:01:20;;;;;;;9.63;4.63;;;;;;;26.80;48.71;95152.22;4805023;29;20184;-69
2023/09/19 06:03:46;;;;;;;9.88;5.05;;;;;;;26.78;48.31;95147.09;4805298;29;20191;-68
2023/09/19 06:06:12;;;;;;;8.85;5.25;;;;;;;26.72;48.48;95139.44;4804159;29;20168;-68
2023/09/19 06:08:37;;;;;;;12.57;4.78;;;;;;;26.94;47.98;95145.66;4803995;29;20180;-68
2023/09/19 06:11:05;;;;;;;6.47;4.68;;;;;;;27.46;46.60;95145.22;4804387;29;20180;-68
2023/09/19 06:13:33;;;;;;;11.40;5.15;;;;;;;27.77;46.53;95141.41;4804806;29;20223;-68
2023/09/19 06:15:59;;;;;;;9.02;4.95;;;;;;;27.86;45.73;95119.78;4805105;29;20582;-68
2023/09/19 06:18:26;;;;;;;11.75;4.47;;;;;;;27.68;46.01;95140.56;4803698;29;20188;-68
2023/09/19 06:20:53;;;;;;;9.73;4.15;;;;;;;27.18;45.67;95115.63;4805062;29;20690;-68
2023/09/19 06:23:20;;;;;;;10.80;4.38;;;;;;;27.89;46.03;95135.41;4805025;29;20676;-68
2023/09/19 06:25:46;;;;;;;7.05;3.80;;;;;;;28.49;43.86;95134.78;4804952;29;20180;-68
2023/09/19 06:28:14;;;;;;;11.40;4.03;;;;;;;29.11;42.65;95143.44;4804811;29;20191;-68
2023/09/19 06:30:40;;;;;;;4.28;3.58;;;;;;;28.81;41.91;95133.56;4804703;29;20179;-68
2023/09/19 06:33:06;;;;;;;6.35;3.75;;;;;;;28.79;42.32;95114.91;4804798;29;20187;-68
2023/09/19 06:35:35;;;;;;;7.55;3.47;;;;;;;29.23;41.34;95140.09;4804332;29;20212;-68
2023/09/19 06:38:05;;;;;;;6.15;3.88;;;;;;;29.00;42.01;95138.66;4785947;29;20200;-68
2023/09/19 06:40:31;;;;;;;4.32;3.50;;;;;;;28.46;43.39;95130.00;4786609;29;20258;-68
2023/09/19 06:42:56;;;;;;;8.02;3.95;;;;;;;27.82;44.47;95135.06;4786568;29;20184;-68
2023/09/19 06:45:22;;;;;;;6.78;3.85;;;;;;;26.67;46.08;95129.53;4786397;29;20180;-68
2023/09/19 06:47:49;;;;;;;6.60;3.30;;;;;;;25.96;47.69;95130.22;4786596;29;20618;-67
2023/09/19 06:50:19;;;;;;;5.85;3.35;;;;;;;25.34;49.37;95135.16;4770151;30;20208;-67
2023/09/19 06:52:46;;;;;;;7.03;3.53;;;;;;;24.97;51.01;95131.47;4784813;29;20677;-68
2023/09/19 06:55:13;;;;;;;6.85;3.80;;;;;;;24.79;51.45;95143.84;4786399;29;20197;-67
2023/09/19 06:57:40;;;;;;;11.57;4.10;;;;;;;24.52;52.70;95132.13;4786303;29;20184;-68
2023/09/19 07:00:15;;;;;;;12.63;3.30;;;;;;;24.25;53.71;95130.06;4788945;29;20567;-68
2023/09/19 07:02:42;;;;;;;11.27;3.55;;;;;;;23.86;54.19;95138.34;4804262;29;20191;-68
2023/09/19 07:05:07;;;;;;;4.70;3.42;;;;;;;23.62;55.04;95128.38;4804136;29;20176;-67
2023/09/19 07:07:34;;;;;;;9.90;3.92;;;;;;;23.70;55.35;95138.50;4804165;29;20229;-67
2023/09/19 07:10:01;;;;;;;11.40;3.38;;;;;;;23.35;55.69;95128.13;4804243;29;20291;-67
2023/09/19 07:12:26;;;;;;;4.47;3.53;;;;;;;23.16;56.82;95135.28;4803928;29;20310;-67
2023/09/19 07:14:51;;;;;;;6.03;3.63;;;;;;;23.01;57.01;95130.03;4803939;29;20290;-67
2023/09/19 07:17:18;;;;;;;5.47;3.92;;;;;;;22.98;57.29;95138.66;4803853;29;20547;-67
2023/09/19 07:19:45;;;;;;;5.25;3.10;;;;;;;22.91;57.79;95130.94;4787453;29;20644;-67
2023/09/19 07:22:10;;;;;;;7.78;3.55;;;;;;;22.86;57.97;95139.81;4803963;29;20186;-67
2023/09/19 07:24:37;;;;;;;8.10;3.72;;;;;;;22.87;57.76;95138.75;4803591;29;20179;-67
2023/09/19 07:27:02;;;;;;;6.65;3.92;;;;;;;22.61;58.15;95141.84;4803569;29;20271;-68
2023/09/19 07:29:28;;;;;;;9.32;4.13;;;;;;;22.26;59.09;95140.19;4803209;29;20664;-68
2023/09/19 07:31:53;;;;;;;5.55;3.42;;;;;;;22.23;59.83;95146.13;4803527;29;20237;-67
2023/09/19 07:34:21;;;;;;;8.38;3.72;;;;;;;22.17;60.20;95143.44;4803626;29;20637;-68
2023/09/19 07:36:47;;;;;;;5.63;3.90;;;;;;;22.25;59.71;95139.38;4803684;29;20196;-69
2023/09/19 07:39:13;;;;;;;9.55;3.88;;;;;;;22.16;59.94;95136.47;4803599;29;20257;-69
2023/09/19 07:41:38;;;;;;;5.60;3.47;;;;;;;22.20;60.57;95142.91;4803487;29;20242;-69
2023/09/19 07:44:04;;;;;;;7.10;3.63;;;;;;;22.26;60.47;95142.88;4803584;29;20196;-68
2023/09/19 07:46:30;;;;;;;6.63;3.92;;;;;;;22.30;60.32;95141.25;4803300;29;20262;-68
2023/09/19 07:48:57;;;;;;;7.88;3.88;;;;;;;22.31;60.13;95137.50;4803363;29;20202;-68
2023/09/19 07:51:22;;;;;;;6.13;3.90;;;;;;;22.42;60.50;95136.34;4803612;29;20187;-69
2023/09/19 07:53:48;;;;;;;7.57;4.22;;;;;;;22.44;59.14;95142.22;4803475;29;20261;-68
2023/09/19 07:56:14;;;;;;;6.28;3.85;;;;;;;22.20;60.04;95137.53;4803199;29;20668;-68
2023/09/19 07:58:43;;;;;;;7.35;4.00;;;;;;;22.17;61.16;95153.38;4787138;29;20274;-68
2023/09/19 08:01:10;;;;;;;9.15;4.10;;;;;;;22.08;61.30;95144.31;4803459;29;20191;-70
2023/09/19 08:03:43;;;;;;;8.05;4.43;;;;;;;22.32;60.98;95139.06;4786882;29;20275;-68
2023/09/19 08:06:10;;;;;;;6.45;3.53;;;;;;;22.54;60.29;95115.34;4803254;29;20210;-68
2023/09/19 08:08:39;;;;;;;8.30;4.13;;;;;;;22.81;58.81;95118.38;4802847;29;20270;-68
2023/09/19 08:11:11;;;;;;;8.55;4.10;;;;;;;22.98;58.71;95120.66;4803138;29;20200;-69
2023/09/19 08:13:37;;;;;;;9.15;3.97;;;;;;;23.10;57.58;95131.03;4803026;29;20239;-69
2023/09/19 08:16:04;;;;;;;6.28;3.53;;;;;;;23.16;57.11;95128.03;4802965;29;20293;-68
2023/09/19 08:18:30;;;;;;;7.85;4.13;;;;;;;23.19;57.85;95110.53;4803029;29;20714;-69
2023/09/19 08:20:58;;;;;;;10.23;3.65;;;;;;;23.51;58.19;95113.47;4787904;29;20186;-69
2023/09/19 08:23:24;;;;;;;5.10;3.80;;;;;;;23.70;55.73;95117.00;4795764;29;20195;-68
2023/09/19 08:25:49;;;;;;;7.32;4.05;;;;;;;23.48;56.26;95105.13;4799157;29;20179;-68
2023/09/19 08:28:18;;;;;;;10.63;3.88;;;;;;;23.60;56.47;95097.50;4787611;29;20184;-68
2023/09/19 08:30:45;;;;;;;9.23;4.30;;;;;;;23.60;55.92;95103.69;4795629;29;20688;-68
2023/09/19 08:33:11;;;;;;;4.20;3.28;;;;;;;23.76;55.55;95122.31;4794305;29;20190;-70
2023/09/19 08:35:37;;;;;;;6.97;4.00;;;;;;;24.11;55.73;95135.34;4794690;29;20196;-68
2023/09/19 08:38:04;;;;;;;5.82;3.70;;;;;;;24.11;54.37;95129.16;4798830;29;20207;-68
2023/09/19 08:40:36;;;;;;;7.32;3.70;;;;;;;24.02;54.56;95124.44;4797195;29;20195;-68
2023/09/19 08:43:02;;;;;;;7.07;3.83;;;;;;;24.06;54.93;95116.56;4792455;29;20180;-68
2023/09/19 08:45:28;;;;;;;9.25;3.85;;;;;;;24.13;54.94;95117.00;4799464;29;20168;-68
2023/09/19 08:48:25;;;;;;;5.55;3.97;;;;;;;24.29;53.89;95113.06;4787023;29;20188;-69
2023/09/19 08:51:32;;;;;;;12.77;5.20;;;;;;;24.32;53.81;95115.16;4794787;29;20207;-69
2023/09/19 08:54:03;;;;;;;6.20;3.95;;;;;;;24.32;54.52;95101.69;4775057;29;20219;-68
2023/09/19 08:56:29;;;;;;;8.00;3.65;;;;;;;24.28;54.40;95099.91;4797076;29;20290;-68
2023/09/19 08:59:02;;;;;;;8.23;4.13;;;;;;;24.26;54.68;95113.63;4792270;29;20665;-69
2023/09/19 09:01:28;;;;;;;9.38;4.03;;;;;;;24.16;54.20;95112.94;4789243;29;20177;-68
2023/09/19 09:03:56;;;;;;;6.80;3.58;;;;;;;24.21;54.93;95115.59;4798982;29;20164;-69
2023/09/19 09:06:23;;;;;;;6.38;3.70;;;;;;;24.26;54.56;95107.47;4788243;29;20176;-68
2023/09/19 09:08:51;;;;;;;5.25;4.63;;;;;;;24.02;54.03;95099.41;4794014;29;20188;-68
2023/09/19 09:11:18;;;;;;;6.18;3.97;;;;;;;24.00;54.57;95105.06;4792882;29;20284;-69
2023/09/19 09:13:45;;;;;;;8.15;4.00;;;;;;;23.82;55.63;95102.34;4787846;29;20285;-68
2023/09/19 09:16:12;;;;;;;6.28;4.10;;;;;;;23.83;55.86;95107.44;4798279;29;20212;-68
2023/09/19 09:18:38;;;;;;;7.13;3.60;;;;;;;23.92;55.18;95096.84;4789867;29;20279;-69
2023/09/19 09:21:04;;;;;;;7.10;3.88;;;;;;;23.89;55.17;95097.41;4792325;29;20263;-69
2023/09/19 09:23:31;;;;;;;9.05;4.18;;;;;;;23.69;55.29;95075.09;4795798;29;20256;-68
2023/09/19 09:26:09;;;;;;;6.57;3.60;;;;;;;23.82;55.90;95080.84;4787148;29;20181;-68
2023/09/19 09:28:37;;;;;;;7.15;3.65;;;;;;;23.92;55.17;95080.72;4796098;29;20264;-69
2023/09/19 09:31:04;;;;;;;8.90;4.43;;;;;;;24.04;55.10;95084.56;4792390;29;20297;-68
2023/09/19 09:33:30;;;;;;;6.40;3.95;;;;;;;24.04;54.33;95079.19;4789407;29;20184;-68
2023/09/19 09:36:00;;;;;;;6.95;3.38;;;;;;;23.57;56.01;95063.94;4798032;29;20286;-68
2023/09/19 09:38:27;;;;;;;11.68;3.83;;;;;;;23.60;56.55;95041.84;4783187;29;20199;-67
2023/09/19 09:43:35;;;;;;;5.90;3.63;;;;;;;24.22;55.16;95066.06;4779888;29;20184;-70
2023/09/19 09:52:17;;;;;;;9.02;3.88;;;;;;;23.93;55.23;95058.09;4727537;30;20231;-66
2023/09/19 09:55:07;;;;;;;10.57;3.70;;;;;;;23.80;56.06;95053.41;4765044;29;20675;-66
2023/09/19 09:57:33;;;;;;;10.77;4.15;;;;;;;23.81;55.49;95052.34;4786771;29;20264;-66
2023/09/19 10:00:19;;;;;;;8.60;3.83;;;;;;;23.83;55.45;95036.72;4786671;29;20192;-67
2023/09/19 10:02:46;;;;;;;7.50;4.70;;;;;;;23.99;55.44;95048.88;4786335;29;20195;-67
2023/09/19 10:07:53;;;;;;;7.65;4.45;;;;;;;24.01;55.35;95054.78;4786798;29;20180;-67
2023/09/19 10:10:53;;;;;;;7.80;4.15;;;;;;;24.11;54.99;95046.56;4786656;29;20219;-67
2023/09/19 10:13:23;;;;;;;9.57;3.92;;;;;;;24.12;55.62;95047.38;4786444;29;20243;-67
2023/09/19 10:15:54;;;;;;;6.85;4.03;;;;;;;24.18;55.16;95044.31;4786387;29;20208;-67
2023/09/19 10:18:22;;;;;;;8.63;4.20;;;;;;;23.83;54.89;95009.81;4786426;29;20565;-67
2023/09/19 10:20:51;;;;;;;8.32;4.75;;;;;;;23.77;55.39;95043.25;4786452;29;20548;-67
2023/09/19 10:23:25;;;;;;;6.93;4.03;;;;;;;23.73;56.04;95036.84;4786292;29;20204;-67
2023/09/19 10:25:52;;;;;;;5.72;3.65;;;;;;;23.75;55.85;95042.75;4786202;29;20189;-67
2023/09/19 10:28:21;;;;;;;5.10;3.88;;;;;;;23.75;55.78;95042.75;4786188;29;20188;-67
2023/09/19 10:30:51;;;;;;;10.07;4.95;;;;;;;23.75;55.48;95042.75;4804037;29;20665;-67
2023/09/19 10:33:22;;;;;;;12.45;3.97;;;;;;;23.55;55.97;95039.22;4804120;29;20188;-67
2023/09/19 10:35:51;;;;;;;6.35;4.22;;;;;;;23.53;55.92;95040.59;4804250;29;20218;-67
2023/09/19 10:38:22;;;;;;;8.00;4.20;;;;;;;23.56;56.67;95038.13;4804140;29;20187;-67
2023/09/19 10:40:53;;;;;;;10.25;4.45;;;;;;;23.72;55.90;95037.94;4803969;29;20195;-67
2023/09/19 10:43:20;;;;;;;7.75;3.50;;;;;;;23.81;56.16;95028.94;4803928;29;20234;-67
2023/09/19 10:45:49;;;;;;;6.22;3.95;;;;;;;23.96;55.64;95033.31;4803932;29;20180;-67
2023/09/19 10:48:19;;;;;;;6.47;3.55;;;;;;;24.07;54.66;95034.75;4803963;29;20180;-67
2023/09/19 10:50:49;;;;;;;5.35;3.75;;;;;;;24.10;54.35;95023.44;4803851;29;20187;-67
2023/09/19 10:53:16;;;;;;;8.20;3.95;;;;;;;24.06;54.90;95015.13;4803857;29;20192;-67
2023/09/19 10:55:51;;;;;;;6.07;3.70;;;;;;;23.94;54.78;95020.16;4803716;29;20211;-67
2023/09/19 10:58:25;;;;;;;6.60;4.07;;;;;;;23.84;55.72;95020.31;4803626;29;20190;-67
2023/09/19 11:01:20;;;;;;;5.88;4.03;;;;;;;23.85;55.86;95016.53;4803676;29;20739;-68
2023/09/19 11:03:45;;;;;;;8.55;4.10;;;;;;;23.98;56.07;95015.78;4803066;29;20290;-67
2023/09/19 11:06:19;;;;;;;7.45;3.85;;;;;;;24.20;55.56;95015.22;4803162;29;20183;-67
2023/09/19 11:11:38;;;;;;;6.95;3.85;;;;;;;24.56;54.10;95012.00;4803220;29;20176;-67
2023/09/19 11:14:29;;;;;;;18.23;4.30;;;;;;;24.67;54.14;95010.72;4803385;29;20191;-67
2023/09/19 11:17:13;;;;;;;10.27;4.70;;;;;;;24.74;53.76;95011.13;4803444;29;20211;-67
2023/09/19 11:22:50;;;;;;;6.90;3.67;;;;;;;24.75;53.12;95000.06;4803300;29;20188;-67
2023/09/19 11:25:29;;;;;;;6.05;3.55;;;;;;;24.74;53.25;95003.84;4786988;29;20179;-67
2023/09/19 11:28:08;;;;;;;7.40;3.83;;;;;;;24.83;53.38;94999.38;4803133;29;20657;-67
2023/09/19 11:30:39;;;;;;;5.90;3.67;;;;;;;24.96;53.03;94995.16;4803096;29;20618;-68
2023/09/19 11:33:41;;;;;;;5.47;3.78;;;;;;;24.79;52.85;94989.50;4784107;29;20219;-67
2023/09/19 11:36:16;;;;;;;4.78;3.42;;;;;;;24.76;53.45;94985.50;4784932;29;20211;-67
2023/09/19 11:38:49;;;;;;;7.50;3.55;;;;;;;24.73;53.12;94978.03;4785079;29;20577;-67
2023/09/19 11:41:20;;;;;;;7.70;3.30;;;;;;;24.65;53.81;94970.63;4785229;29;20192;-68
2023/09/19 11:43:46;;;;;;;9.63;4.22;;;;;;;24.72;53.89;94964.88;4768800;29;20242;-67
2023/09/19 11:46:12;;;;;;;5.47;4.43;;;;;;;24.80;52.94;94964.97;4782876;29;20249;-68
2023/09/19 11:48:42;;;;;;;8.10;3.95;;;;;;;24.82;53.27;94959.28;4785141;29;20200;-67
2023/09/19 11:51:19;;;;;;;12.52;3.72;;;;;;;24.94;53.62;94953.44;4783203;29;20193;-67
2023/09/19 11:54:00;;;;;;;7.75;3.40;;;;;;;25.00;53.78;94947.63;4785037;29;20581;-67
2023/09/19 11:56:31;;;;;;;13.23;3.97;;;;;;;25.23;52.28;94963.94;4784855;29;20214;-67